createdAt,value
2023-04-22T00:01:01.410Z,11.18
2023-04-22T00:03:30.402Z,11.15
2023-04-22T00:05:58.756Z,11.01
2023-04-22T00:08:26.775Z,11.01
2023-04-22T00:10:57.112Z,11.03
2023-04-22T00:13:24.901Z,11.16
2023-04-22T00:15:54.335Z,11.16
2023-04-22T00:18:23.061Z,11.11
2023-04-22T00:20:51.071Z,11.09
2023-04-22T00:23:19.390Z,11.06
2023-04-22T00:25:48.316Z,11.03
2023-04-22T00:28:16.688Z,11.15
2023-04-22T00:30:44.683Z,11.20
2023-04-22T00:33:14.019Z,11.30
2023-04-22T00:35:42.977Z,11.24
2023-04-22T00:38:11.128Z,11.30
2023-04-22T00:40:39.582Z,11.20
2023-04-22T00:43:09.994Z,11.19
2023-04-22T00:45:38.315Z,11.09
2023-04-22T00:48:06.931Z,11.24
2023-04-22T00:50:37.440Z,11.31
2023-04-22T00:53:05.358Z,11.26
2023-04-22T00:55:33.860Z,11.27
2023-04-22T00:58:02.950Z,11.27
2023-04-22T01:00:31.235Z,11.12
2023-04-22T01:02:59.571Z,11.16
2023-04-22T01:05:30.382Z,11.09
2023-04-22T01:08:00.506Z,10.75
2023-04-22T01:10:29.566Z,10.75
2023-04-22T01:12:57.497Z,10.94
2023-04-22T01:15:26.008Z,10.85
2023-04-22T01:17:55.467Z,10.68
2023-04-22T01:20:24.393Z,10.63
2023-04-22T01:22:57.062Z,10.41
2023-04-22T01:25:27.110Z,10.51
2023-04-22T01:27:55.534Z,10.50
2023-04-22T01:30:23.741Z,10.54
2023-04-22T01:32:51.888Z,10.46
2023-04-22T01:35:22.095Z,10.47
2023-04-22T01:37:51.032Z,10.43
2023-04-22T01:40:22.779Z,10.25
2023-04-22T01:42:53.550Z,10.29
2023-04-22T01:45:21.494Z,10.39
2023-04-22T01:47:49.888Z,10.33
2023-04-22T01:50:18.849Z,10.19
2023-04-22T01:52:46.910Z,10.22
2023-04-22T01:55:16.285Z,10.30
2023-04-22T01:57:45.117Z,10.13
2023-04-22T02:00:15.733Z,10.23
2023-04-22T02:02:48.849Z,10.23
2023-04-22T02:05:16.992Z,10.17
2023-04-22T02:07:47.110Z,10.05
2023-04-22T02:10:17.829Z,9.98
2023-04-22T02:12:45.827Z,10.09
2023-04-22T02:15:16.882Z,10.10
2023-04-22T02:17:46.729Z,10.16
2023-04-22T02:20:14.690Z,10.25
2023-04-22T02:22:44.420Z,10.13
2023-04-22T02:25:15.856Z,10.16
2023-04-22T02:27:44.098Z,10.22
2023-04-22T02:30:13.498Z,10.20
2023-04-22T02:32:43.746Z,10.15
2023-04-22T02:35:12.347Z,10.08
2023-04-22T02:37:40.698Z,10.06
2023-04-22T02:40:10.372Z,10.06
2023-04-22T02:42:38.327Z,10.13
2023-04-22T02:45:08.364Z,10.30
2023-04-22T02:47:36.636Z,10.37
2023-04-22T02:50:08.981Z,10.53
2023-04-22T02:52:37.615Z,10.57
2023-04-22T02:55:06.207Z,10.72
2023-04-22T02:57:34.578Z,10.78
2023-04-22T03:00:03.106Z,11.36
2023-04-22T03:02:31.155Z,11.81
2023-04-22T03:05:10.682Z,12.05
2023-04-22T03:07:38.698Z,12.74
2023-04-22T03:10:08.789Z,13.17
2023-04-22T03:12:37.286Z,13.41
2023-04-22T03:15:06.027Z,13.37
2023-04-22T03:17:36.503Z,13.46
2023-04-22T03:20:11.718Z,13.46
2023-04-22T03:22:40.627Z,13.58
2023-04-22T03:25:11.817Z,13.54
2023-04-22T03:27:41.379Z,13.55
2023-04-22T03:30:09.969Z,13.57
2023-04-22T03:32:38.372Z,13.57
2023-04-22T03:35:20.877Z,13.54
2023-04-22T03:37:52.276Z,13.51
2023-04-22T03:40:27.783Z,13.47
2023-04-22T03:42:56.254Z,13.50
2023-04-22T03:45:25.095Z,13.50
2023-04-22T03:48:22.557Z,13.59
2023-04-22T03:50:54.715Z,13.65
2023-04-22T03:53:25.211Z,13.58
2023-04-22T03:55:53.902Z,13.57
2023-04-22T03:58:22.473Z,13.64
2023-04-22T04:00:53.661Z,13.62
2023-04-22T04:03:22.251Z,13.64
2023-04-22T04:05:56.095Z,13.51
2023-04-22T04:08:24.349Z,13.58
2023-04-22T04:10:52.295Z,13.59
2023-04-22T04:13:21.747Z,13.61
2023-04-22T04:16:05.168Z,13.57
2023-04-22T04:18:34.275Z,13.55
2023-04-22T04:21:04.237Z,13.54
2023-04-22T04:23:36.377Z,13.50
2023-04-22T04:26:05.670Z,13.50
2023-04-22T04:28:38.273Z,13.50
2023-04-22T04:31:06.894Z,13.50
2023-04-22T04:33:37.021Z,13.53
2023-04-22T04:36:09.244Z,13.50
2023-04-22T04:38:39.066Z,13.53
2023-04-22T04:41:09.728Z,13.53
2023-04-22T04:43:38.768Z,13.58
2023-04-22T04:46:22.942Z,13.57
2023-04-22T04:48:51.726Z,13.61
2023-04-22T04:51:21.703Z,13.62
2023-04-22T04:53:54.587Z,13.62
2023-04-22T04:56:23.798Z,13.57
2023-04-22T04:58:52.358Z,13.55
2023-04-22T05:01:25.312Z,13.61
2023-04-22T05:03:54.202Z,13.65
2023-04-22T05:06:24.033Z,13.69
2023-04-22T05:09:04.307Z,13.72
2023-04-22T05:11:32.354Z,13.72
2023-04-22T05:14:02.442Z,13.74
2023-04-22T05:16:38.995Z,13.87
2023-04-22T05:19:08.733Z,13.95
2023-04-22T05:21:39.335Z,13.98
2023-04-22T05:24:08.185Z,14.02
2023-04-22T05:26:37.278Z,13.98
2023-04-22T05:29:12.362Z,14.14
2023-04-22T05:31:41.334Z,14.14
2023-04-22T05:34:12.012Z,14.23
2023-04-22T05:36:42.227Z,14.31
2023-04-22T05:39:10.550Z,14.40
2023-04-22T05:41:38.503Z,14.34
2023-04-22T05:44:10.850Z,14.37
2023-04-22T05:46:38.943Z,14.42
2023-04-22T05:49:06.986Z,14.48
2023-04-22T05:51:56.141Z,14.58
2023-04-22T05:54:30.085Z,14.62
2023-04-22T05:56:59.016Z,14.62
2023-04-22T05:59:27.693Z,14.67
2023-04-22T06:01:56.388Z,14.68
2023-04-22T06:04:24.668Z,14.62
2023-04-22T06:06:54.947Z,14.69
2023-04-22T06:09:24.946Z,14.76
2023-04-22T06:11:53.038Z,14.85
2023-04-22T06:14:21.862Z,14.86
2023-04-22T06:16:50.427Z,14.88
2023-04-22T06:19:18.903Z,14.99
2023-04-22T06:21:47.489Z,15.07
2023-04-22T06:24:15.426Z,15.16
2023-04-22T06:26:45.692Z,15.38
2023-04-22T06:29:13.444Z,15.57
2023-04-22T06:31:41.914Z,15.55
2023-04-22T06:34:10.778Z,15.76
2023-04-22T06:36:39.714Z,15.93
2023-04-22T06:39:11.513Z,16.07
2023-04-22T06:41:57.466Z,16.03
2023-04-22T06:44:52.145Z,16.14
2023-04-22T06:47:50.456Z,16.16
2023-04-22T06:50:23.649Z,16.21
2023-04-22T06:52:56.653Z,16.35
2023-04-22T06:55:25.426Z,16.42
2023-04-22T06:57:55.325Z,16.51
2023-04-22T07:00:23.416Z,16.59
2023-04-22T07:02:51.617Z,16.52
2023-04-22T07:05:20.820Z,16.55
2023-04-22T07:07:49.356Z,16.49
2023-04-22T07:10:22.169Z,16.52
2023-04-22T07:13:11.396Z,16.69
2023-04-22T07:15:41.304Z,17.08
2023-04-22T07:18:09.315Z,17.21
2023-04-22T07:20:37.213Z,17.02
2023-04-22T07:23:07.416Z,17.24
2023-04-22T07:25:35.610Z,17.04
2023-04-22T07:28:04.979Z,17.32
2023-04-22T07:30:34.639Z,17.28
2023-04-22T07:33:02.854Z,17.30
2023-04-22T07:35:31.681Z,17.32
2023-04-22T07:38:00.124Z,17.25
2023-04-22T07:40:28.077Z,17.34
2023-04-22T07:42:57.162Z,17.66
2023-04-22T07:45:25.066Z,17.51
2023-04-22T07:47:54.846Z,17.59
2023-04-22T07:50:23.697Z,17.53
2023-04-22T07:52:51.565Z,17.59
2023-04-22T07:55:19.596Z,17.75
2023-04-22T07:57:47.969Z,17.66
2023-04-22T08:00:17.077Z,17.89
2023-04-22T08:02:47.055Z,17.89
2023-04-22T08:05:16.516Z,18.24
2023-04-22T08:07:45.115Z,18.17
2023-04-22T08:10:13.943Z,18.32
2023-04-22T08:12:41.969Z,18.31
2023-04-22T08:15:10.681Z,18.34
2023-04-22T08:17:39.647Z,18.48
2023-04-22T08:20:09.028Z,18.53
2023-04-22T08:22:39.290Z,18.84
2023-04-22T08:25:08.513Z,18.84
2023-04-22T08:27:37.051Z,18.79
2023-04-22T08:30:06.670Z,18.91
2023-04-22T08:32:34.767Z,19.12
2023-04-22T08:35:05.313Z,19.10
2023-04-22T08:37:35.387Z,18.97
2023-04-22T08:40:05.934Z,19.34
2023-04-22T08:42:36.032Z,19.25
2023-04-22T08:45:04.304Z,18.93
2023-04-22T08:47:33.956Z,18.94
2023-04-22T08:50:04.565Z,18.83
2023-04-22T08:52:33.163Z,18.84
2023-04-22T08:55:01.144Z,19.08
2023-04-22T08:57:31.874Z,19.39
2023-04-22T09:00:01.065Z,19.42
2023-04-22T09:02:32.588Z,19.29
2023-04-22T09:05:03.418Z,19.28
2023-04-22T09:07:33.954Z,19.32
2023-04-22T09:10:01.910Z,19.48
2023-04-22T09:12:32.750Z,19.34
2023-04-22T09:15:01.370Z,19.49
2023-04-22T09:17:33.806Z,19.73
2023-04-22T09:20:05.210Z,19.74
2023-04-22T09:22:40.146Z,19.69
2023-04-22T09:25:16.789Z,20.10
2023-04-22T09:27:50.487Z,20.26
2023-04-22T09:30:20.833Z,20.11
2023-04-22T09:32:56.222Z,20.20
2023-04-22T09:35:28.390Z,19.90
2023-04-22T09:37:56.645Z,20.11
2023-04-22T09:40:25.979Z,20.67
2023-04-22T09:42:56.959Z,20.72
2023-04-22T09:45:31.487Z,20.83
2023-04-22T09:48:03.293Z,21.26
2023-04-22T09:50:32.801Z,21.25
2023-04-22T09:53:01.913Z,21.36
2023-04-22T09:55:32.478Z,21.24
2023-04-22T09:58:07.939Z,21.19
2023-04-22T10:00:39.330Z,21.12
2023-04-22T10:03:10.550Z,21.14
2023-04-22T10:05:41.759Z,21.52
2023-04-22T10:08:11.524Z,21.12
2023-04-22T10:10:40.797Z,21.64
2023-04-22T10:13:11.002Z,21.63
2023-04-22T10:15:40.665Z,22.01
2023-04-22T10:18:13.476Z,22.33
2023-04-22T10:20:43.265Z,22.57
2023-04-22T10:23:17.583Z,22.29
2023-04-22T10:25:48.883Z,22.00
2023-04-22T10:28:19.816Z,21.70
2023-04-22T10:30:48.096Z,22.01
2023-04-22T10:33:39.667Z,22.33
2023-04-22T10:36:09.777Z,22.22
2023-04-22T10:38:39.720Z,21.98
2023-04-22T10:41:07.866Z,22.18
2023-04-22T10:43:46.195Z,22.21
2023-04-22T10:46:53.165Z,22.53
2023-04-22T10:49:25.169Z,22.50
2023-04-22T10:51:54.427Z,21.95
2023-04-22T10:55:03.864Z,22.46
2023-04-22T10:57:37.721Z,22.35
2023-04-22T11:00:41.749Z,22.45
2023-04-22T11:03:19.179Z,22.33
2023-04-22T11:05:47.839Z,22.53
2023-04-22T11:08:21.709Z,22.47
2023-04-22T11:10:52.062Z,22.73
2023-04-22T11:13:21.694Z,22.68
2023-04-22T11:15:54.210Z,22.61
2023-04-22T11:18:24.909Z,22.80
2023-04-22T11:20:53.849Z,22.68
2023-04-22T11:23:25.632Z,22.56
2023-04-22T11:25:58.877Z,22.70
2023-04-22T11:28:27.791Z,23.05
2023-04-22T11:31:05.406Z,23.08
2023-04-22T11:33:34.456Z,22.88
2023-04-22T11:36:02.506Z,22.80
2023-04-22T11:38:33.563Z,23.04
2023-04-22T11:41:01.456Z,22.49
2023-04-22T11:43:29.831Z,22.78
2023-04-22T11:45:58.976Z,23.16
2023-04-22T11:48:28.451Z,23.25
2023-04-22T11:51:10.274Z,23.15
2023-04-22T11:53:39.631Z,23.02
2023-04-22T11:56:07.619Z,23.05
2023-04-22T11:58:41.459Z,23.08
2023-04-22T12:01:13.874Z,22.87
2023-04-22T12:03:44.402Z,22.78
2023-04-22T12:06:12.534Z,23.12
2023-04-22T12:08:42.536Z,23.02
2023-04-22T12:11:13.223Z,23.43
2023-04-22T12:13:48.014Z,23.91
2023-04-22T12:16:20.796Z,24.16
2023-04-22T12:18:52.758Z,23.71
2023-04-22T12:21:24.241Z,23.88
2023-04-22T12:23:53.640Z,23.78
2023-04-22T12:26:26.663Z,24.11
2023-04-22T12:28:56.079Z,24.16
2023-04-22T12:31:24.139Z,24.26
2023-04-22T12:33:55.152Z,24.06
2023-04-22T12:36:23.424Z,24.63
2023-04-22T12:38:52.135Z,25.27
2023-04-22T12:41:21.003Z,25.98
2023-04-22T12:43:48.953Z,26.28
2023-04-22T12:46:18.173Z,26.77
2023-04-22T12:48:46.630Z,26.22
2023-04-22T12:51:15.981Z,26.83
2023-04-22T12:53:44.454Z,25.92
2023-04-22T12:56:12.858Z,26.09
2023-04-22T12:58:40.956Z,24.53
2023-04-22T13:01:08.931Z,24.36
2023-04-22T13:03:38.030Z,24.67
2023-04-22T13:06:06.151Z,24.67
2023-04-22T13:08:36.428Z,25.73
2023-04-22T13:11:04.822Z,24.95
2023-04-22T13:13:32.744Z,24.99
2023-04-22T13:16:02.503Z,26.78
2023-04-22T13:18:30.936Z,27.36
2023-04-22T13:21:00.200Z,27.51
2023-04-22T13:23:28.641Z,27.50
2023-04-22T13:25:59.266Z,27.02
2023-04-22T13:28:27.309Z,28.30
2023-04-22T13:30:55.677Z,27.39
2023-04-22T13:33:24.595Z,28.09
2023-04-22T13:35:52.589Z,26.54
2023-04-22T13:38:21.947Z,24.46
2023-04-22T13:40:49.817Z,23.84
2023-04-22T13:43:19.561Z,23.53
2023-04-22T13:45:48.923Z,25.04
2023-04-22T13:48:16.905Z,24.53
2023-04-22T13:50:44.779Z,25.57
2023-04-22T13:53:14.608Z,26.08
2023-04-22T13:55:43.763Z,27.74
2023-04-22T13:58:12.084Z,28.08
2023-04-22T14:00:41.424Z,27.94
2023-04-22T14:03:10.484Z,29.02
2023-04-22T14:10:34.905Z,28.78
2023-04-22T14:13:03.871Z,29.08
2023-04-22T14:15:31.854Z,25.47
2023-04-22T14:18:01.751Z,25.29
2023-04-22T14:20:30.924Z,24.30
2023-04-22T14:22:58.944Z,24.35
2023-04-22T14:25:26.902Z,24.88
2023-04-22T14:27:55.967Z,24.04
2023-04-22T14:30:24.677Z,24.43
2023-04-22T14:32:53.253Z,26.36
2023-04-22T14:35:22.891Z,25.23
2023-04-22T14:37:51.298Z,24.57
2023-04-22T14:40:20.533Z,23.52
2023-04-22T14:42:48.531Z,23.26
2023-04-22T14:45:16.462Z,23.04
2023-04-22T14:47:45.474Z,23.22
2023-04-22T14:50:13.435Z,22.95
2023-04-22T14:52:43.246Z,22.95
2023-04-22T14:55:21.870Z,23.15
2023-04-22T14:57:53.322Z,23.41
2023-04-22T15:00:22.330Z,23.33
2023-04-22T15:02:51.172Z,23.67
2023-04-22T15:05:19.752Z,24.02
2023-04-22T15:07:49.603Z,23.88
2023-04-22T15:10:17.951Z,24.15
2023-04-22T15:12:46.719Z,24.09
2023-04-22T15:15:16.180Z,23.82
2023-04-22T15:17:44.607Z,23.91
2023-04-22T15:20:13.971Z,23.49
2023-04-22T15:22:42.370Z,23.38
2023-04-22T15:25:12.446Z,23.60
2023-04-22T15:27:41.018Z,23.50
2023-04-22T15:30:11.855Z,23.30
2023-04-22T15:32:40.204Z,23.14
2023-04-22T15:35:10.026Z,22.71
2023-04-22T15:37:37.999Z,22.46
2023-04-22T15:40:07.944Z,22.39
2023-04-22T15:42:38.227Z,22.38
2023-04-22T15:45:07.394Z,22.25
2023-04-22T15:47:36.735Z,22.67
2023-04-22T15:50:09.595Z,22.68
2023-04-22T15:52:38.856Z,22.63
2023-04-22T15:55:09.788Z,22.60
2023-04-22T15:57:39.170Z,22.36
2023-04-22T16:00:13.125Z,22.12
2023-04-22T16:02:44.170Z,22.05
2023-04-22T16:05:15.472Z,21.98
2023-04-22T16:07:43.457Z,20.81
2023-04-22T16:10:12.108Z,19.98
2023-04-22T16:12:43.138Z,19.59
2023-04-22T16:15:12.026Z,19.58
2023-04-22T16:17:40.167Z,19.59
2023-04-22T16:20:11.039Z,19.60
2023-04-22T16:22:39.042Z,19.62
2023-04-22T16:25:08.400Z,19.71
2023-04-22T16:27:37.412Z,19.53
2023-04-22T16:30:08.021Z,18.70
2023-04-22T16:32:38.618Z,17.68
2023-04-22T16:35:07.641Z,16.97
2023-04-22T16:37:36.756Z,16.76
2023-04-22T16:40:07.339Z,16.69
2023-04-22T16:42:35.408Z,16.61
2023-04-22T16:45:03.887Z,16.56
2023-04-22T16:47:33.639Z,16.52
2023-04-22T16:50:01.358Z,16.56
2023-04-22T16:52:29.749Z,16.61
2023-04-22T16:54:58.580Z,16.47
2023-04-22T16:57:26.533Z,16.54
2023-04-22T16:59:54.399Z,16.52
2023-04-22T17:02:23.357Z,16.51
2023-04-22T17:04:52.710Z,16.48
2023-04-22T17:07:21.075Z,16.38
2023-04-22T17:09:50.351Z,16.32
2023-04-22T17:12:18.488Z,16.29
2023-04-22T17:14:46.517Z,16.32
2023-04-22T17:17:15.411Z,16.29
2023-04-22T17:19:43.949Z,16.35
2023-04-22T17:22:14.468Z,16.38
2023-04-22T17:24:43.506Z,16.49
2023-04-22T17:27:15.151Z,16.55
2023-04-22T17:29:43.382Z,16.68
2023-04-22T17:32:11.330Z,16.76
2023-04-22T17:34:42.165Z,16.80
2023-04-22T17:37:10.251Z,16.86
2023-04-22T17:39:42.300Z,16.96
2023-04-22T17:42:10.320Z,17.00
2023-04-22T17:44:39.664Z,17.07
2023-04-22T17:47:07.923Z,17.03
2023-04-22T17:49:36.005Z,16.97
2023-04-22T17:52:04.894Z,16.96
2023-04-22T17:54:32.819Z,16.93
2023-04-22T17:57:03.206Z,16.90
2023-04-22T17:59:32.101Z,16.90
2023-04-22T18:02:01.444Z,16.90
2023-04-22T18:04:30.562Z,16.87
2023-04-22T18:06:58.723Z,16.89
2023-04-22T18:09:27.415Z,16.77
2023-04-22T18:11:58.731Z,16.79
2023-04-22T18:14:28.194Z,16.71
2023-04-22T18:16:56.212Z,16.61
2023-04-22T18:19:25.221Z,16.55
2023-04-22T18:22:00.139Z,16.58
2023-04-22T18:24:30.387Z,16.54
2023-04-22T18:26:58.689Z,16.62
2023-04-22T18:29:31.317Z,16.61
2023-04-22T18:31:59.451Z,16.63
2023-04-22T18:34:28.523Z,16.54
2023-04-22T18:36:57.566Z,16.42
2023-04-22T18:39:25.511Z,16.41
2023-04-22T18:41:54.217Z,16.51
2023-04-22T18:44:22.812Z,16.58
2023-04-22T18:46:54.779Z,16.55
2023-04-22T18:49:23.840Z,16.52
2023-04-22T18:51:51.767Z,16.56
2023-04-22T18:54:20.226Z,16.61
2023-04-22T18:56:50.985Z,16.66
2023-04-22T18:59:18.971Z,16.66
2023-04-22T19:01:48.021Z,16.69
2023-04-22T19:04:17.522Z,16.63
2023-04-22T19:06:46.034Z,16.63
2023-04-22T19:09:14.502Z,16.59
2023-04-22T19:11:42.530Z,16.81
2023-04-22T19:14:10.630Z,16.73
2023-04-22T19:16:39.695Z,16.71
2023-04-22T19:19:08.070Z,16.79
2023-04-22T19:21:39.292Z,16.77
2023-04-22T19:24:07.616Z,16.79
2023-04-22T19:26:36.068Z,16.73
2023-04-22T19:29:04.464Z,16.73
2023-04-22T19:31:32.874Z,16.59
2023-04-22T19:34:02.696Z,16.41
2023-04-22T19:36:32.160Z,16.25
2023-04-22T19:39:01.397Z,16.14
2023-04-22T19:41:30.258Z,16.09
2023-04-22T19:43:59.029Z,16.07
2023-04-22T19:46:27.531Z,15.96
2023-04-22T19:48:56.597Z,15.87
2023-04-22T19:51:27.100Z,15.73
2023-04-22T19:53:56.995Z,15.66
2023-04-22T19:56:28.210Z,15.59
2023-04-22T19:58:56.916Z,15.47
2023-04-22T20:01:25.789Z,15.31
2023-04-22T20:03:54.472Z,15.11
2023-04-22T20:06:23.942Z,14.85
2023-04-22T20:08:54.213Z,14.73
2023-04-22T20:11:23.674Z,14.62
2023-04-22T20:13:53.904Z,14.58
2023-04-22T20:16:23.379Z,14.51
2023-04-22T20:18:52.236Z,14.45
2023-04-22T20:21:21.807Z,14.41
2023-04-22T20:23:51.588Z,14.41
2023-04-22T20:26:20.865Z,14.38
2023-04-22T20:28:52.340Z,14.35
2023-04-22T20:31:23.515Z,14.40
2023-04-22T20:33:52.693Z,14.40
2023-04-22T20:36:22.441Z,14.34
2023-04-22T20:38:52.594Z,14.37
2023-04-22T20:41:21.790Z,14.31
2023-04-22T20:43:50.009Z,14.31
2023-04-22T20:46:18.470Z,14.30
2023-04-22T20:48:49.940Z,14.24
2023-04-22T20:51:18.222Z,14.20
2023-04-22T20:53:47.196Z,14.23
2023-04-22T20:56:15.549Z,14.16
2023-04-22T20:58:44.457Z,14.23
2023-04-22T21:03:53.100Z,14.20
2023-04-22T21:06:22.109Z,14.18
2023-04-22T21:08:50.641Z,14.18
2023-04-22T21:11:20.140Z,14.17
2023-04-22T21:13:49.600Z,14.16
2023-04-22T21:16:19.941Z,14.09
2023-04-22T21:18:49.198Z,14.09
2023-04-22T21:21:24.419Z,14.09
2023-04-22T21:23:55.365Z,14.09
2023-04-22T21:26:25.656Z,14.14
2023-04-22T21:28:53.822Z,14.09
2023-04-22T21:31:23.403Z,14.10
2023-04-22T21:33:52.502Z,14.12
2023-04-22T21:36:22.853Z,14.13
2023-04-22T21:38:51.952Z,14.14
2023-04-22T21:41:19.922Z,14.13
2023-04-22T21:43:49.317Z,14.16
2023-04-22T21:46:17.762Z,14.16
2023-04-22T21:48:45.719Z,14.10
2023-04-22T21:51:13.647Z,14.13
2023-04-22T21:53:44.936Z,14.12
2023-04-22T21:56:13.272Z,14.12
2023-04-22T21:58:42.365Z,14.02
2023-04-22T22:01:10.272Z,14.02
2023-04-22T22:03:38.770Z,13.92
2023-04-22T22:06:07.592Z,13.96
2023-04-22T22:08:35.651Z,13.95
2023-04-22T22:11:07.037Z,13.98
2023-04-22T22:13:37.661Z,13.98
2023-04-22T22:16:05.893Z,14.02
2023-04-22T22:18:34.576Z,13.98
2023-04-22T22:21:02.913Z,13.93
2023-04-22T22:23:31.011Z,13.99
2023-04-22T22:25:59.114Z,13.95
2023-04-22T22:28:29.942Z,14.00
2023-04-22T22:31:02.343Z,14.03
2023-04-22T22:33:32.556Z,14.03
2023-04-22T22:36:00.931Z,13.99
2023-04-22T22:38:29.335Z,14.06
2023-04-22T22:40:58.394Z,13.99
2023-04-22T22:43:26.818Z,14.12
2023-04-22T22:45:56.705Z,14.17
2023-04-22T22:48:25.272Z,14.16
2023-04-22T22:50:53.366Z,14.05
2023-04-22T22:53:21.674Z,13.82
2023-04-22T22:55:50.084Z,13.75
2023-04-22T22:58:18.164Z,13.61
2023-04-22T23:00:46.182Z,13.54
2023-04-22T23:03:18.466Z,13.33
2023-04-22T23:05:47.793Z,13.17
2023-04-22T23:08:16.176Z,13.05
2023-04-22T23:10:44.233Z,12.99
2023-04-22T23:13:12.189Z,12.95
2023-04-22T23:15:41.390Z,12.93
2023-04-22T23:18:10.563Z,12.91
2023-04-22T23:20:44.119Z,12.82
2023-04-22T23:23:13.814Z,12.79
2023-04-22T23:25:42.374Z,12.81
2023-04-22T23:28:11.594Z,12.79
2023-04-22T23:30:40.345Z,12.84
2023-04-22T23:33:11.430Z,12.84
2023-04-22T23:35:44.004Z,12.72
2023-04-22T23:38:13.265Z,12.68
2023-04-22T23:40:41.349Z,12.69
2023-04-22T23:43:09.799Z,12.67
2023-04-22T23:45:38.257Z,12.61
2023-04-22T23:48:06.480Z,12.62
2023-04-22T23:50:34.622Z,12.58
2023-04-22T23:53:04.447Z,12.58
2023-04-22T23:55:33.524Z,12.57
2023-04-22T23:58:02.095Z,12.62
